sensor_id;sensor_type;location;lat;lon;timestamp;P1;P2;P0
72509;PMS5003;60532;56.114;40.350;2022-08-21T00:03:00;11.25;10.00;4.50
72509;PMS5003;60532;56.114;40.350;2022-08-21T00:08:01;6.00;6.00;3.00
72509;PMS5003;60532;56.114;40.350;2022-08-21T00:13:05;11.40;6.40;3.80
72509;PMS5003;60532;56.114;40.350;2022-08-21T00:18:07;7.60;7.60;4.80
72509;PMS5003;60532;56.114;40.350;2022-08-21T00:23:07;8.20;7.40;4.80
72509;PMS5003;60532;56.114;40.350;2022-08-21T00:28:08;10.50;10.00;5.00
72509;PMS5003;60532;56.114;40.350;2022-08-21T00:33:10;13.60;12.80;6.00
72509;PMS5003;60532;56.114;40.350;2022-08-21T00:38:11;12.40;7.40;4.80
72509;PMS5003;60532;56.114;40.350;2022-08-21T00:43:13;6.50;6.25;4.00
72509;PMS5003;60532;56.114;40.350;2022-08-21T00:48:14;10.20;10.20;5.00
72509;PMS5003;60532;56.114;40.350;2022-08-21T00:53:15;13.00;10.80;6.00
72509;PMS5003;60532;56.114;40.350;2022-08-21T00:58:17;10.40;7.60;4.00
72509;PMS5003;60532;56.114;40.350;2022-08-21T01:03:19;8.00;8.00;5.00
72509;PMS5003;60532;56.114;40.350;2022-08-21T01:08:20;11.00;10.00;5.60
72509;PMS5003;60532;56.114;40.350;2022-08-21T01:13:22;10.20;10.20;5.60
72509;PMS5003;60532;56.114;40.350;2022-08-21T01:18:25;10.80;7.00;5.00
72509;PMS5003;60532;56.114;40.350;2022-08-21T01:23:26;9.00;8.40;5.00
72509;PMS5003;60532;56.114;40.350;2022-08-21T01:28:27;10.80;7.20;4.40
72509;PMS5003;60532;56.114;40.350;2022-08-21T01:33:30;11.40;10.20;4.60
72509;PMS5003;60532;56.114;40.350;2022-08-21T01:38:31;10.25;10.00;5.00
72509;PMS5003;60532;56.114;40.350;2022-08-21T01:43:32;8.00;8.00;5.00
72509;PMS5003;60532;56.114;40.350;2022-08-21T01:48:33;11.60;9.00;5.00
72509;PMS5003;60532;56.114;40.350;2022-08-21T01:53:34;16.50;13.00;4.00
72509;PMS5003;60532;56.114;40.350;2022-08-21T01:58:36;11.60;10.00;4.80
72509;PMS5003;60532;56.114;40.350;2022-08-21T02:03:37;10.50;8.50;5.00
72509;PMS5003;60532;56.114;40.350;2022-08-21T02:08:38;8.40;8.20;5.00
72509;PMS5003;60532;56.114;40.350;2022-08-21T02:13:38;11.00;9.00;4.00
72509;PMS5003;60532;56.114;40.350;2022-08-21T02:18:39;8.25;6.25;4.25
72509;PMS5003;60532;56.114;40.350;2022-08-21T02:23:40;11.00;11.00;4.00
72509;PMS5003;60532;56.114;40.350;2022-08-21T02:28:40;11.00;10.25;4.75
72509;PMS5003;60532;56.114;40.350;2022-08-21T02:33:41;10.00;9.50;4.25
72509;PMS5003;60532;56.114;40.350;2022-08-21T02:38:41;5.75;5.75;5.00
72509;PMS5003;60532;56.114;40.350;2022-08-21T02:43:43;4.00;4.00;3.00
72509;PMS5003;60532;56.114;40.350;2022-08-21T02:48:44;12.75;11.75;6.00
72509;PMS5003;60532;56.114;40.350;2022-08-21T02:53:45;11.75;9.50;5.00
72509;PMS5003;60532;56.114;40.350;2022-08-21T02:58:47;7.40;6.80;3.60
72509;PMS5003;60532;56.114;40.350;2022-08-21T03:03:48;5.20;5.20;3.20
72509;PMS5003;60532;56.114;40.350;2022-08-21T03:08:52;8.60;8.60;4.40
72509;PMS5003;60532;56.114;40.350;2022-08-21T03:13:53;7.75;7.75;5.00
72509;PMS5003;60532;56.114;40.350;2022-08-21T03:18:53;6.25;3.75;1.50
72509;PMS5003;60532;56.114;40.350;2022-08-21T03:23:54;11.00;7.75;5.00
72509;PMS5003;60532;56.114;40.350;2022-08-21T03:28:54;8.75;8.25;4.25
72509;PMS5003;60532;56.114;40.350;2022-08-21T03:33:57;7.20;7.20;4.20
72509;PMS5003;60532;56.114;40.350;2022-08-21T03:38:57;10.40;8.20;5.00
72509;PMS5003;60532;56.114;40.350;2022-08-21T03:43:58;8.75;7.25;4.00
72509;PMS5003;60532;56.114;40.350;2022-08-21T03:48:59;10.00;8.25;4.00
72509;PMS5003;60532;56.114;40.350;2022-08-21T03:53:59;8.00;8.00;4.25
72509;PMS5003;60532;56.114;40.350;2022-08-21T03:59:00;9.00;7.00;5.00
72509;PMS5003;60532;56.114;40.350;2022-08-21T04:04:03;8.40;7.40;4.40
72509;PMS5003;60532;56.114;40.350;2022-08-21T04:09:04;8.60;8.00;4.00
72509;PMS5003;60532;56.114;40.350;2022-08-21T04:14:04;10.67;7.00;4.00
72509;PMS5003;60532;56.114;40.350;2022-08-21T04:19:05;10.00;10.00;5.33
72509;PMS5003;60532;56.114;40.350;2022-08-21T04:24:06;9.00;8.00;5.00
72509;PMS5003;60532;56.114;40.350;2022-08-21T04:29:07;6.25;6.25;4.75
72509;PMS5003;60532;56.114;40.350;2022-08-21T04:34:08;10.33;10.33;6.67
72509;PMS5003;60532;56.114;40.350;2022-08-21T04:39:08;6.00;6.00;4.00
72509;PMS5003;60532;56.114;40.350;2022-08-21T04:44:09;9.00;8.33;4.33
72509;PMS5003;60532;56.114;40.350;2022-08-21T04:49:10;9.33;8.33;4.67
72509;PMS5003;60532;56.114;40.350;2022-08-21T04:54:12;7.25;6.00;4.00
72509;PMS5003;60532;56.114;40.350;2022-08-21T04:59:16;9.20;7.80;5.00
72509;PMS5003;60532;56.114;40.350;2022-08-21T05:04:18;6.00;6.00;4.00
72509;PMS5003;60532;56.114;40.350;2022-08-21T05:09:21;8.75;6.75;5.00
72509;PMS5003;60532;56.114;40.350;2022-08-21T05:14:22;5.33;5.33;4.00
72509;PMS5003;60532;56.114;40.350;2022-08-21T05:19:22;4.67;4.67;2.67
72509;PMS5003;60532;56.114;40.350;2022-08-21T05:24:23;6.67;4.67;2.67
72509;PMS5003;60532;56.114;40.350;2022-08-21T05:29:24;8.00;7.33;4.00
72509;PMS5003;60532;56.114;40.350;2022-08-21T05:34:25;6.00;6.00;3.00
72509;PMS5003;60532;56.114;40.350;2022-08-21T05:39:25;7.00;5.00;3.67
72509;PMS5003;60532;56.114;40.350;2022-08-21T05:44:26;8.33;7.00;3.33
72509;PMS5003;60532;56.114;40.350;2022-08-21T05:49:26;5.33;5.33;3.33
72509;PMS5003;60532;56.114;40.350;2022-08-21T05:54:27;7.00;6.33;4.00
72509;PMS5003;60532;56.114;40.350;2022-08-21T05:59:27;5.67;5.67;3.00
72509;PMS5003;60532;56.114;40.350;2022-08-21T06:04:28;5.00;5.00;3.00
72509;PMS5003;60532;56.114;40.350;2022-08-21T06:09:32;6.75;6.25;3.25
72509;PMS5003;60532;56.114;40.350;2022-08-21T06:14:32;11.00;6.20;3.00
72509;PMS5003;60532;56.114;40.350;2022-08-21T06:19:37;10.00;7.00;4.00
72509;PMS5003;60532;56.114;40.350;2022-08-21T06:24:38;4.80;4.80;3.00
72509;PMS5003;60532;56.114;40.350;2022-08-21T06:29:39;6.50;5.25;3.25
72509;PMS5003;60532;56.114;40.350;2022-08-21T06:34:40;9.00;7.00;4.00
72509;PMS5003;60532;56.114;40.350;2022-08-21T06:39:41;5.00;5.00;3.00
72509;PMS5003;60532;56.114;40.350;2022-08-21T06:44:42;5.00;5.00;3.00
72509;PMS5003;60532;56.114;40.350;2022-08-21T06:49:43;4.80;4.80;3.00
72509;PMS5003;60532;56.114;40.350;2022-08-21T06:54:43;4.00;2.50;2.00
72509;PMS5003;60532;56.114;40.350;2022-08-21T06:59:44;5.67;4.00;2.67
72509;PMS5003;60532;56.114;40.350;2022-08-21T07:04:44;7.00;5.67;3.00
72509;PMS5003;60532;56.114;40.350;2022-08-21T07:09:45;5.00;5.00;2.67
72509;PMS5003;60532;56.114;40.350;2022-08-21T07:14:45;6.33;4.67;3.00
72509;PMS5003;60532;56.114;40.350;2022-08-21T07:19:46;4.00;4.00;2.00
72509;PMS5003;60532;56.114;40.350;2022-08-21T07:24:46;5.33;3.00;2.00
72509;PMS5003;60532;56.114;40.350;2022-08-21T07:29:47;3.00;3.00;1.33
72509;PMS5003;60532;56.114;40.350;2022-08-21T07:34:47;5.33;4.67;3.00
72509;PMS5003;60532;56.114;40.350;2022-08-21T07:39:48;5.00;5.00;3.00
72509;PMS5003;60532;56.114;40.350;2022-08-21T07:44:49;5.00;4.33;3.00
72509;PMS5003;60532;56.114;40.350;2022-08-21T07:49:49;5.00;5.00;3.00
72509;PMS5003;60532;56.114;40.350;2022-08-21T07:54:51;6.50;6.50;4.00
72509;PMS5003;60532;56.114;40.350;2022-08-21T07:59:52;5.25;5.25;3.00
72509;PMS5003;60532;56.114;40.350;2022-08-21T08:04:57;5.00;5.00;3.00
72509;PMS5003;60532;56.114;40.350;2022-08-21T08:10:02;4.00;4.00;2.00
72509;PMS5003;60532;56.114;40.350;2022-08-21T08:15:04;5.50;3.50;1.75
72509;PMS5003;60532;56.114;40.350;2022-08-21T08:20:06;4.00;4.00;2.75
72509;PMS5003;60532;56.114;40.350;2022-08-21T08:25:08;3.25;3.00;1.25
72509;PMS5003;60532;56.114;40.350;2022-08-21T08:30:10;6.00;3.75;2.00
72509;PMS5003;60532;56.114;40.350;2022-08-21T08:35:12;5.25;4.00;2.00
72509;PMS5003;60532;56.114;40.350;2022-08-21T08:40:13;2.00;2.00;0.75
72509;PMS5003;60532;56.114;40.350;2022-08-21T08:45:19;6.00;4.00;3.00
72509;PMS5003;60532;56.114;40.350;2022-08-21T08:50:25;5.00;5.00;2.00
72509;PMS5003;60532;56.114;40.350;2022-08-21T08:55:38;4.00;4.00;2.50
72509;PMS5003;60532;56.114;40.350;2022-08-21T09:00:40;6.25;5.00;2.00
72509;PMS5003;60532;56.114;40.350;2022-08-21T09:05:43;4.67;3.33;1.00
72509;PMS5003;60532;56.114;40.350;2022-08-21T09:16:18;7.50;4.25;2.50
72509;PMS5003;60532;56.114;40.350;2022-08-21T09:26:25;7.67;6.33;4.00
72509;PMS5003;60532;56.114;40.350;2022-08-21T09:36:49;5.00;5.00;3.00
72509;PMS5003;60532;56.114;40.350;2022-08-21T09:41:56;3.25;3.25;1.00
72509;PMS5003;60532;56.114;40.350;2022-08-21T09:46:57;2.75;2.75;1.25
72509;PMS5003;60532;56.114;40.350;2022-08-21T09:51:58;6.67;5.00;2.00
72509;PMS5003;60532;56.114;40.350;2022-08-21T09:57:00;3.75;3.75;1.75
72509;PMS5003;60532;56.114;40.350;2022-08-21T10:02:26;4.25;3.25;2.50
72509;PMS5003;60532;56.114;40.350;2022-08-21T10:07:29;3.50;3.00;1.50
72509;PMS5003;60532;56.114;40.350;2022-08-21T10:12:39;6.25;4.00;2.00
72509;PMS5003;60532;56.114;40.350;2022-08-21T10:33:13;2.75;2.25;1.00
72509;PMS5003;60532;56.114;40.350;2022-08-21T10:48:41;4.50;4.25;2.75
72509;PMS5003;60532;56.114;40.350;2022-08-21T10:53:56;6.75;4.00;2.00
72509;PMS5003;60532;56.114;40.350;2022-08-21T10:59:02;4.25;3.50;1.75
72509;PMS5003;60532;56.114;40.350;2022-08-21T11:09:23;4.75;3.50;2.00
72509;PMS5003;60532;56.114;40.350;2022-08-21T11:14:36;3.00;2.75;1.00
72509;PMS5003;60532;56.114;40.350;2022-08-21T11:24:55;7.50;5.50;2.00
72509;PMS5003;60532;56.114;40.350;2022-08-21T11:29:58;8.75;4.50;2.25
72509;PMS5003;60532;56.114;40.350;2022-08-21T11:35:11;3.75;2.75;1.50
72509;PMS5003;60532;56.114;40.350;2022-08-21T11:50:27;5.00;4.67;2.00
72509;PMS5003;60532;56.114;40.350;2022-08-21T11:55:30;3.25;3.25;2.25
72509;PMS5003;60532;56.114;40.350;2022-08-21T12:00:33;5.25;5.25;2.00
72509;PMS5003;60532;56.114;40.350;2022-08-21T12:05:38;4.25;4.25;2.00
72509;PMS5003;60532;56.114;40.350;2022-08-21T12:10:58;4.00;4.00;2.00
72509;PMS5003;60532;56.114;40.350;2022-08-21T12:16:06;4.25;3.75;1.75
72509;PMS5003;60532;56.114;40.350;2022-08-21T12:22:09;3.75;3.00;2.00
72509;PMS5003;60532;56.114;40.350;2022-08-21T12:26:51;4.25;4.25;2.00
72509;PMS5003;60532;56.114;40.350;2022-08-21T12:31:56;3.75;3.25;2.00
72509;PMS5003;60532;56.114;40.350;2022-08-21T12:37:42;5.50;3.75;2.00
72509;PMS5003;60532;56.114;40.350;2022-08-21T12:42:28;4.50;4.50;2.00
72509;PMS5003;60532;56.114;40.350;2022-08-21T12:52:35;3.33;3.33;2.00
72509;PMS5003;60532;56.114;40.350;2022-08-21T12:57:39;4.25;4.25;1.50
72509;PMS5003;60532;56.114;40.350;2022-08-21T13:02:45;4.50;4.50;1.75
72509;PMS5003;60532;56.114;40.350;2022-08-21T13:07:47;3.25;2.75;1.50
72509;PMS5003;60532;56.114;40.350;2022-08-21T13:12:49;3.00;3.00;1.50
72509;PMS5003;60532;56.114;40.350;2022-08-21T13:17:50;3.50;3.50;2.00
72509;PMS5003;60532;56.114;40.350;2022-08-21T13:22:51;4.67;4.67;3.00
72509;PMS5003;60532;56.114;40.350;2022-08-21T13:28:05;5.33;5.33;1.33
72509;PMS5003;60532;56.114;40.350;2022-08-21T13:33:06;5.00;5.00;2.50
72509;PMS5003;60532;56.114;40.350;2022-08-21T13:38:07;2.75;2.00;2.00
72509;PMS5003;60532;56.114;40.350;2022-08-21T13:43:14;7.00;7.00;3.33
72509;PMS5003;60532;56.114;40.350;2022-08-21T13:48:16;4.50;4.00;1.75
72509;PMS5003;60532;56.114;40.350;2022-08-21T13:58:26;5.50;3.75;1.75
72509;PMS5003;60532;56.114;40.350;2022-08-21T14:18:28;5.33;3.33;1.67
72509;PMS5003;60532;56.114;40.350;2022-08-21T14:23:29;3.00;3.00;1.00
72509;PMS5003;60532;56.114;40.350;2022-08-21T14:28:31;7.00;3.00;2.00
72509;PMS5003;60532;56.114;40.350;2022-08-21T14:33:32;4.25;3.00;2.00
72509;PMS5003;60532;56.114;40.350;2022-08-21T14:38:34;3.00;3.00;2.00
72509;PMS5003;60532;56.114;40.350;2022-08-21T14:43:35;5.75;4.00;2.00
72509;PMS5003;60532;56.114;40.350;2022-08-21T14:48:36;6.33;5.33;2.00
72509;PMS5003;60532;56.114;40.350;2022-08-21T14:53:36;3.00;3.00;1.67
72509;PMS5003;60532;56.114;40.350;2022-08-21T14:58:38;5.67;3.67;2.00
72509;PMS5003;60532;56.114;40.350;2022-08-21T15:03:40;4.00;4.00;1.00
72509;PMS5003;60532;56.114;40.350;2022-08-21T15:08:40;4.75;4.50;1.75
72509;PMS5003;60532;56.114;40.350;2022-08-21T15:13:41;8.67;3.67;1.67
72509;PMS5003;60532;56.114;40.350;2022-08-21T15:18:42;1.00;1.00;0.00
72509;PMS5003;60532;56.114;40.350;2022-08-21T15:23:42;7.67;6.33;3.67
72509;PMS5003;60532;56.114;40.350;2022-08-21T15:28:43;5.00;5.00;3.00
72509;PMS5003;60532;56.114;40.350;2022-08-21T15:33:43;6.00;6.00;3.33
72509;PMS5003;60532;56.114;40.350;2022-08-21T15:38:44;4.00;4.00;3.00
72509;PMS5003;60532;56.114;40.350;2022-08-21T15:43:46;11.25;5.75;3.00
72509;PMS5003;60532;56.114;40.350;2022-08-21T15:48:47;5.00;4.75;2.75
72509;PMS5003;60532;56.114;40.350;2022-08-21T15:53:48;6.33;4.00;3.00
72509;PMS5003;60532;56.114;40.350;2022-08-21T15:58:52;5.33;5.00;3.33
72509;PMS5003;60532;56.114;40.350;2022-08-21T16:03:54;9.00;6.00;3.75
72509;PMS5003;60532;56.114;40.350;2022-08-21T16:08:55;7.00;7.00;4.33
72509;PMS5003;60532;56.114;40.350;2022-08-21T16:13:56;7.33;6.67;4.00
72509;PMS5003;60532;56.114;40.350;2022-08-21T16:18:56;5.00;5.00;1.33
72509;PMS5003;60532;56.114;40.350;2022-08-21T16:23:57;5.00;3.67;2.33
72509;PMS5003;60532;56.114;40.350;2022-08-21T16:28:58;4.00;4.00;3.00
72509;PMS5003;60532;56.114;40.350;2022-08-21T16:33:59;5.00;5.00;3.00
72509;PMS5003;60532;56.114;40.350;2022-08-21T16:39:00;6.33;6.00;3.33
72509;PMS5003;60532;56.114;40.350;2022-08-21T16:44:01;10.00;7.00;4.00
72509;PMS5003;60532;56.114;40.350;2022-08-21T16:49:02;6.00;6.00;3.00
72509;PMS5003;60532;56.114;40.350;2022-08-21T16:54:04;7.75;6.75;4.50
72509;PMS5003;60532;56.114;40.350;2022-08-21T16:59:05;7.75;6.75;4.00
72509;PMS5003;60532;56.114;40.350;2022-08-21T17:04:05;12.00;11.00;4.67
72509;PMS5003;60532;56.114;40.350;2022-08-21T17:09:06;7.75;5.25;2.00
72509;PMS5003;60532;56.114;40.350;2022-08-21T17:14:08;11.33;8.67;6.00
72509;PMS5003;60532;56.114;40.350;2022-08-21T17:19:13;8.40;8.40;4.80
72509;PMS5003;60532;56.114;40.350;2022-08-21T17:24:13;7.25;6.00;4.00
72509;PMS5003;60532;56.114;40.350;2022-08-21T17:29:14;7.00;7.00;4.00
72509;PMS5003;60532;56.114;40.350;2022-08-21T17:34:15;6.33;6.00;3.00
72509;PMS5003;60532;56.114;40.350;2022-08-21T17:39:16;4.75;4.75;3.00
72509;PMS5003;60532;56.114;40.350;2022-08-21T17:44:17;7.00;7.00;4.00
72509;PMS5003;60532;56.114;40.350;2022-08-21T17:49:19;6.80;4.80;2.80
72509;PMS5003;60532;56.114;40.350;2022-08-21T17:54:19;12.25;7.50;4.25
72509;PMS5003;60532;56.114;40.350;2022-08-21T17:59:23;9.00;6.00;4.00
72509;PMS5003;60532;56.114;40.350;2022-08-21T18:04:26;6.00;6.00;3.00
72509;PMS5003;60532;56.114;40.350;2022-08-21T18:09:27;7.00;6.80;3.80
72509;PMS5003;60532;56.114;40.350;2022-08-21T18:14:29;6.00;6.00;4.00
72509;PMS5003;60532;56.114;40.350;2022-08-21T18:19:30;7.00;5.80;3.00
72509;PMS5003;60532;56.114;40.350;2022-08-21T18:24:31;6.00;6.00;4.25
72509;PMS5003;60532;56.114;40.350;2022-08-21T18:29:32;6.75;5.00;3.00
72509;PMS5003;60532;56.114;40.350;2022-08-21T18:34:35;8.40;7.40;4.00
72509;PMS5003;60532;56.114;40.350;2022-08-21T18:39:37;6.60;6.60;2.80
72509;PMS5003;60532;56.114;40.350;2022-08-21T18:44:38;6.75;6.75;3.75
72509;PMS5003;60532;56.114;40.350;2022-08-21T18:49:39;6.60;6.00;4.00
72509;PMS5003;60532;56.114;40.350;2022-08-21T18:54:40;8.25;7.00;4.75
72509;PMS5003;60532;56.114;40.350;2022-08-21T18:59:41;5.50;5.00;3.00
72509;PMS5003;60532;56.114;40.350;2022-08-21T19:04:42;4.00;4.00;2.40
72509;PMS5003;60532;56.114;40.350;2022-08-21T19:09:43;7.75;7.25;3.00
72509;PMS5003;60532;56.114;40.350;2022-08-21T19:14:43;7.25;5.25;3.00
72509;PMS5003;60532;56.114;40.350;2022-08-21T19:19:44;6.50;6.00;3.50
72509;PMS5003;60532;56.114;40.350;2022-08-21T19:24:45;5.00;5.00;3.00
72509;PMS5003;60532;56.114;40.350;2022-08-21T19:29:46;6.50;3.75;2.00
72509;PMS5003;60532;56.114;40.350;2022-08-21T19:34:46;5.75;5.75;3.00
72509;PMS5003;60532;56.114;40.350;2022-08-21T19:39:49;7.00;6.00;3.60
72509;PMS5003;60532;56.114;40.350;2022-08-21T19:44:49;9.25;6.00;3.50
72509;PMS5003;60532;56.114;40.350;2022-08-21T19:49:51;6.75;5.25;4.00
72509;PMS5003;60532;56.114;40.350;2022-08-21T19:54:53;6.40;5.00;2.20
72509;PMS5003;60532;56.114;40.350;2022-08-21T19:59:53;7.00;7.00;4.00
72509;PMS5003;60532;56.114;40.350;2022-08-21T20:04:54;4.50;4.50;3.00
72509;PMS5003;60532;56.114;40.350;2022-08-21T20:09:55;7.75;7.75;4.75
72509;PMS5003;60532;56.114;40.350;2022-08-21T20:14:56;4.80;2.80;1.00
72509;PMS5003;60532;56.114;40.350;2022-08-21T20:19:56;9.25;5.50;3.75
72509;PMS5003;60532;56.114;40.350;2022-08-21T20:24:57;6.00;6.00;4.00
72509;PMS5003;60532;56.114;40.350;2022-08-21T20:29:57;7.50;6.75;4.75
72509;PMS5003;60532;56.114;40.350;2022-08-21T20:34:58;7.00;7.00;3.00
72509;PMS5003;60532;56.114;40.350;2022-08-21T20:39:58;7.00;6.75;3.25
72509;PMS5003;60532;56.114;40.350;2022-08-21T20:44:59;7.00;5.50;4.00
72509;PMS5003;60532;56.114;40.350;2022-08-21T20:50:05;9.80;9.80;5.20
72509;PMS5003;60532;56.114;40.350;2022-08-21T20:55:08;7.80;7.80;4.00
72509;PMS5003;60532;56.114;40.350;2022-08-21T21:00:10;7.20;7.20;3.80
72509;PMS5003;60532;56.114;40.350;2022-08-21T21:05:25;6.40;6.40;4.00
72509;PMS5003;60532;56.114;40.350;2022-08-21T21:10:31;8.00;7.20;4.00
72509;PMS5003;60532;56.114;40.350;2022-08-21T21:15:34;8.00;7.20;4.00
72509;PMS5003;60532;56.114;40.350;2022-08-21T21:20:40;6.80;5.20;3.40
72509;PMS5003;60532;56.114;40.350;2022-08-21T21:25:46;7.80;7.80;4.20
72509;PMS5003;60532;56.114;40.350;2022-08-21T21:30:47;5.40;5.20;2.60
72509;PMS5003;60532;56.114;40.350;2022-08-21T21:35:50;10.00;8.25;4.25
72509;PMS5003;60532;56.114;40.350;2022-08-21T22:01:54;5.80;5.80;4.20
72509;PMS5003;60532;56.114;40.350;2022-08-21T22:07:16;7.40;7.00;4.20
72509;PMS5003;60532;56.114;40.350;2022-08-21T22:17:35;12.00;7.40;5.00
72509;PMS5003;60532;56.114;40.350;2022-08-21T22:22:36;6.40;6.00;4.40
72509;PMS5003;60532;56.114;40.350;2022-08-21T22:27:38;9.60;7.80;4.00
72509;PMS5003;60532;56.114;40.350;2022-08-21T22:32:44;8.00;8.00;4.80
72509;PMS5003;60532;56.114;40.350;2022-08-21T22:37:50;9.80;8.00;5.00
72509;PMS5003;60532;56.114;40.350;2022-08-21T22:43:05;6.40;5.60;3.80
72509;PMS5003;60532;56.114;40.350;2022-08-21T22:48:06;8.60;8.20;4.60
72509;PMS5003;60532;56.114;40.350;2022-08-21T22:53:11;7.40;6.60;4.00
72509;PMS5003;60532;56.114;40.350;2022-08-21T22:58:26;7.60;6.40;3.00
72509;PMS5003;60532;56.114;40.350;2022-08-21T23:08:46;8.00;6.20;4.40
72509;PMS5003;60532;56.114;40.350;2022-08-21T23:13:49;8.60;8.40;5.00
72509;PMS5003;60532;56.114;40.350;2022-08-21T23:29:20;9.00;9.00;5.60
72509;PMS5003;60532;56.114;40.350;2022-08-21T23:44:56;10.60;7.60;5.60
